Time;durP1;ratioP1;P1;durP2;ratioP2;P2;SDS_P1;SDS_P2;PMS_P1;PMS_P2;Temp;Humidity;BMP_temperature;BMP_pressure;BME280_temperature;BME280_humidity;BME280_pressure;Samples;Min_cycle;Max_cycle;Signal;HPM_P1;HPM_P2
2022/10/22 00:01:42;;;;;;;12.43;8.27;;;;;;;5.78;79.47;95895.43;1722499;82;21109;-62
2022/10/22 00:04:09;;;;;;;12.07;6.40;;;;;;;5.74;79.25;95895.40;1721092;82;21029;-62
2022/10/22 00:06:35;;;;;;;12.93;7.73;;;;;;;5.71;80.23;95894.08;1720411;82;21080;-62
2022/10/22 00:09:03;;;;;;;14.07;7.73;;;;;;;5.69;79.65;95898.43;1720372;82;21114;-62
2022/10/22 00:11:29;;;;;;;11.07;7.17;;;;;;;5.72;79.63;95897.12;1710828;82;21034;-62
2022/10/22 00:13:57;;;;;;;9.70;6.60;;;;;;;5.74;79.94;95891.47;1718944;83;21015;-62
2022/10/22 00:16:23;;;;;;;9.97;6.20;;;;;;;5.68;79.25;95891.02;1693622;83;21531;-62
2022/10/22 00:18:50;;;;;;;9.23;5.63;;;;;;;5.60;79.59;95902.76;1732770;83;21026;-62
2022/10/22 00:21:17;;;;;;;8.77;5.47;;;;;;;5.57;79.32;95896.20;1721302;83;21066;-62
2022/10/22 00:23:44;;;;;;;7.47;5.30;;;;;;;5.52;79.33;95890.06;1699918;84;21050;-62
2022/10/22 00:26:11;;;;;;;14.00;5.73;;;;;;;5.47;80.75;95894.40;1699205;82;21057;-62
2022/10/22 00:28:38;;;;;;;9.37;5.57;;;;;;;5.50;81.39;95893.55;1699525;83;21086;-62
2022/10/22 00:31:05;;;;;;;10.83;6.93;;;;;;;5.52;81.06;95892.69;1698009;84;21046;-62
2022/10/22 00:33:32;;;;;;;9.87;6.10;;;;;;;5.55;81.04;95886.16;1701709;82;21006;-62
2022/10/22 00:35:59;;;;;;;8.97;6.33;;;;;;;5.56;80.37;95890.95;1700882;83;21121;-62
2022/10/22 00:38:26;;;;;;;8.87;6.30;;;;;;;5.52;80.57;95886.14;1699611;84;21061;-62
2022/10/22 00:40:52;;;;;;;11.53;6.00;;;;;;;5.49;80.58;95880.00;1702674;84;21014;-62
2022/10/22 00:43:20;;;;;;;10.33;6.63;;;;;;;5.52;80.89;95874.77;1699657;83;21034;-62
2022/10/22 00:45:47;;;;;;;13.47;6.73;;;;;;;5.50;80.02;95883.94;1700015;83;21552;-62
2022/10/22 00:48:27;;;;;;;11.47;7.20;;;;;;;5.48;80.39;95874.34;1699755;83;21026;-62
2022/10/22 00:50:58;;;;;;;11.53;6.53;;;;;;;5.51;80.63;95871.28;1700140;83;22079;-62
2022/10/22 00:53:48;;;;;;;9.20;6.03;;;;;;;5.56;80.06;95870.01;1700829;84;21531;-62
2022/10/22 00:56:17;;;;;;;12.20;6.60;;;;;;;5.48;80.04;95871.72;1700905;84;21528;-62
2022/10/22 00:58:48;;;;;;;9.43;5.70;;;;;;;5.46;80.36;95874.75;1699399;84;21532;-62
2022/10/22 01:01:21;;;;;;;10.17;5.93;;;;;;;5.46;80.43;95866.46;1699969;84;22309;-62
2022/10/22 01:03:48;;;;;;;13.17;6.33;;;;;;;5.40;80.33;95872.98;1667277;83;21056;-62
2022/10/22 01:06:20;;;;;;;9.93;5.60;;;;;;;5.34;80.14;95870.31;1669997;84;21548;-62
2022/10/22 01:09:08;;;;;;;11.83;5.97;;;;;;;5.30;80.16;95866.81;1698030;84;21062;-62
2022/10/22 01:12:18;;;;;;;10.03;6.03;;;;;;;5.27;80.52;95868.11;1700906;83;21611;-62
2022/10/22 01:15:09;;;;;;;11.70;6.37;;;;;;;5.36;80.75;95855.06;1698741;84;21101;-62
2022/10/22 01:17:58;;;;;;;8.23;5.80;;;;;;;5.37;80.45;95855.96;1700694;84;21058;-62
2022/10/22 01:20:55;;;;;;;13.77;6.07;;;;;;;5.31;80.92;95860.70;1701941;84;21089;-62
2022/10/22 01:24:03;;;;;;;12.07;5.63;;;;;;;5.29;81.03;95859.84;1700457;83;21157;-61
2022/10/22 01:27:11;;;;;;;6.90;5.57;;;;;;;5.15;80.78;95854.51;1698664;82;21054;-62
2022/10/22 01:30:01;;;;;;;10.43;5.87;;;;;;;5.13;80.62;95857.98;1700913;82;21109;-62
2022/10/22 01:32:32;;;;;;;7.87;5.10;;;;;;;5.07;81.40;95854.03;1701827;84;21046;-62
2022/10/22 01:35:07;;;;;;;15.03;6.40;;;;;;;5.07;81.16;95853.59;1700081;84;21041;-62
2022/10/22 01:37:39;;;;;;;9.93;5.77;;;;;;;5.03;81.19;95847.88;1700059;84;21049;-62
2022/10/22 01:40:09;;;;;;;10.90;6.57;;;;;;;5.02;81.74;95843.97;1697449;84;21480;-62
2022/10/22 01:42:36;;;;;;;12.50;7.00;;;;;;;5.02;81.39;95847.89;1699778;84;21041;-62
2022/10/22 01:45:12;;;;;;;13.33;5.97;;;;;;;4.96;80.81;95836.94;1699734;83;21492;-62
2022/10/22 01:47:52;;;;;;;14.23;5.77;;;;;;;4.90;80.75;95843.00;1700423;83;21551;-62
2022/10/22 01:50:56;;;;;;;9.40;6.33;;;;;;;4.84;81.14;95840.77;1699290;84;21038;-63
2022/10/22 01:53:46;;;;;;;9.45;5.95;;;;;;;4.75;81.67;95839.84;1698568;84;21540;-62
2022/10/22 01:56:39;;;;;;;10.00;6.23;;;;;;;4.77;81.97;95835.50;1701087;84;21058;-62
2022/10/22 01:59:20;;;;;;;9.68;5.53;;;;;;;4.78;81.62;95828.09;1701282;84;21070;-62
2022/10/22 02:02:09;;;;;;;15.67;6.03;;;;;;;4.81;81.49;95839.44;1697250;82;21062;-63
2022/10/22 02:04:44;;;;;;;10.13;6.10;;;;;;;4.80;82.39;95844.23;1699704;84;22227;-62
2022/10/22 02:07:16;;;;;;;10.07;5.90;;;;;;;4.82;82.27;95840.77;1699926;83;21531;-62
2022/10/22 02:09:44;;;;;;;9.27;6.23;;;;;;;4.87;82.92;95835.58;1699307;83;21169;-62
2022/10/22 02:12:13;;;;;;;9.17;6.43;;;;;;;4.94;82.67;95849.15;1699271;84;21539;-62
2022/10/22 02:14:43;;;;;;;11.47;6.27;;;;;;;4.96;81.79;95848.30;1697545;84;21054;-62
2022/10/22 02:17:15;;;;;;;11.57;6.37;;;;;;;4.96;81.26;95843.06;1699986;84;21543;-62
2022/10/22 02:20:01;;;;;;;10.00;6.17;;;;;;;4.97;81.69;95841.32;1670664;84;21079;-62
2022/10/22 02:22:29;;;;;;;7.80;5.63;;;;;;;5.03;81.88;95845.27;1700721;84;21069;-63
2022/10/22 02:24:56;;;;;;;9.60;6.00;;;;;;;5.04;81.62;95844.83;1699581;83;21556;-62
2022/10/22 02:27:31;;;;;;;9.17;6.27;;;;;;;5.05;81.44;95842.23;1699287;83;21035;-62
2022/10/22 02:30:09;;;;;;;13.23;5.93;;;;;;;5.01;81.08;95839.14;1698201;84;21122;-62
2022/10/22 02:32:59;;;;;;;10.63;6.13;;;;;;;5.05;81.07;95832.22;1699489;83;21524;-62
2022/10/22 02:35:28;;;;;;;9.83;6.00;;;;;;;5.11;81.49;95827.88;1702062;84;21062;-62
2022/10/22 02:37:57;;;;;;;14.03;7.70;;;;;;;5.19;81.32;95817.46;1699864;84;21157;-62
2022/10/22 02:40:24;;;;;;;8.23;6.27;;;;;;;5.23;80.97;95807.47;1698709;83;21054;-62
2022/10/22 02:42:52;;;;;;;9.13;6.50;;;;;;;5.15;80.67;95820.50;1700580;83;21567;-62
2022/10/22 02:45:19;;;;;;;12.23;6.70;;;;;;;5.16;80.66;95813.09;1699399;82;21094;-62
2022/10/22 02:47:46;;;;;;;10.17;5.50;;;;;;;5.15;80.83;95806.12;1699642;84;21083;-62
2022/10/22 02:50:13;;;;;;;9.43;5.93;;;;;;;5.04;80.25;95813.04;1699792;83;21086;-62
2022/10/22 02:52:40;;;;;;;8.97;4.90;;;;;;;4.98;80.74;95808.63;1700804;83;21042;-62
2022/10/22 02:55:08;;;;;;;10.37;4.97;;;;;;;4.94;81.04;95812.10;1699880;82;21065;-62
2022/10/22 02:57:35;;;;;;;9.57;5.30;;;;;;;4.93;81.05;95810.77;1700727;84;21128;-62
2022/10/22 03:00:05;;;;;;;9.83;5.90;;;;;;;4.88;81.12;95819.89;1699544;84;21552;-62
2022/10/22 03:02:31;;;;;;;9.47;5.17;;;;;;;4.87;81.75;95814.23;1701309;83;21033;-62
2022/10/22 03:04:58;;;;;;;7.87;5.43;;;;;;;4.87;81.53;95821.20;1699764;83;21062;-62
2022/10/22 03:07:25;;;;;;;9.03;5.37;;;;;;;4.83;82.69;95824.20;1700280;84;21556;-62
2022/10/22 03:09:52;;;;;;;9.93;5.33;;;;;;;4.84;81.81;95825.98;1700721;83;21081;-62
2022/10/22 03:12:19;;;;;;;14.50;8.73;;;;;;;4.81;82.02;95814.60;1698746;84;21022;-62
2022/10/22 03:14:46;;;;;;;14.90;8.67;;;;;;;4.82;81.68;95815.06;1700477;84;21523;-62
2022/10/22 03:17:13;;;;;;;11.37;7.90;;;;;;;4.84;81.50;95814.62;1699482;82;21042;-62
2022/10/22 03:19:40;;;;;;;12.07;7.00;;;;;;;4.82;82.49;95815.06;1698606;83;21037;-62
2022/10/22 03:22:19;;;;;;;12.97;7.53;;;;;;;4.83;81.87;95818.98;1701265;84;21591;-62
2022/10/22 03:24:50;;;;;;;12.97;7.47;;;;;;;4.88;81.80;95818.58;1698526;83;21046;-62
2022/10/22 03:27:19;;;;;;;9.40;6.83;;;;;;;4.89;81.91;95813.81;1700012;84;21486;-62
2022/10/22 03:29:48;;;;;;;26.47;8.80;;;;;;;4.90;83.10;95815.55;1700527;82;21132;-62
2022/10/22 03:32:15;;;;;;;14.00;7.93;;;;;;;4.91;82.47;95810.78;1700110;84;21620;-62
2022/10/22 03:34:42;;;;;;;16.60;9.30;;;;;;;4.95;82.28;95813.84;1699435;82;21049;-62
2022/10/22 03:37:09;;;;;;;18.30;10.30;;;;;;;4.96;82.19;95822.14;1699758;84;21189;-62
2022/10/22 03:39:37;;;;;;;14.33;8.57;;;;;;;5.05;82.68;95809.98;1699326;83;21050;-62
2022/10/22 03:42:06;;;;;;;32.73;19.17;;;;;;;5.07;82.27;95816.98;1700744;83;21077;-62
2022/10/22 03:44:35;;;;;;;25.03;15.90;;;;;;;5.13;82.40;95817.00;1701172;82;21611;-62
2022/10/22 03:47:01;;;;;;;21.40;9.90;;;;;;;5.21;82.29;95812.68;1699842;82;21054;-62
2022/10/22 03:49:28;;;;;;;18.30;10.13;;;;;;;5.27;81.99;95818.41;1698459;83;21121;-62
2022/10/22 03:51:55;;;;;;;14.03;9.87;;;;;;;5.35;81.70;95817.13;1699295;83;21489;-62
2022/10/22 03:54:21;;;;;;;16.43;11.00;;;;;;;5.39;81.61;95809.72;1699937;82;20999;-63
2022/10/22 03:56:48;;;;;;;18.77;12.13;;;;;;;5.39;81.27;95809.72;1698958;83;21026;-62
2022/10/22 03:59:15;;;;;;;23.17;13.40;;;;;;;5.37;81.49;95807.11;1699018;84;21579;-62
2022/10/22 04:01:42;;;;;;;18.80;12.10;;;;;;;5.45;81.48;95802.36;1700137;83;21037;-62
2022/10/22 04:04:08;;;;;;;21.37;14.13;;;;;;;5.46;81.50;95801.03;1699603;83;21065;-62
2022/10/22 04:06:35;;;;;;;24.03;15.50;;;;;;;5.48;81.47;95804.98;1701209;83;21070;-62
2022/10/22 04:09:01;;;;;;;20.50;13.10;;;;;;;5.50;81.50;95798.89;1699664;84;21034;-62
2022/10/22 04:11:28;;;;;;;17.87;11.33;;;;;;;5.51;81.25;95803.68;1699339;83;21058;-62
2022/10/22 04:13:55;;;;;;;21.80;14.40;;;;;;;5.48;81.40;95803.67;1699951;83;20999;-62
2022/10/22 04:16:22;;;;;;;17.33;12.13;;;;;;;5.47;81.81;95792.34;1699384;82;21026;-62
2022/10/22 04:18:50;;;;;;;20.97;12.07;;;;;;;5.51;81.28;95799.31;1700489;84;21140;-62
2022/10/22 04:21:19;;;;;;;21.63;13.30;;;;;;;5.53;81.81;95790.17;1699815;84;21066;-62
2022/10/22 04:23:48;;;;;;;19.00;12.33;;;;;;;5.57;81.54;95794.56;1700335;83;21563;-62
2022/10/22 04:26:17;;;;;;;17.03;12.43;;;;;;;5.52;81.08;95787.09;1700023;83;21054;-62
2022/10/22 04:28:46;;;;;;;25.17;15.83;;;;;;;5.49;81.95;95788.40;1683169;84;21002;-62
2022/10/22 04:31:18;;;;;;;17.80;11.20;;;;;;;5.51;81.60;95791.46;1698697;84;21544;-62
2022/10/22 04:33:45;;;;;;;24.87;14.93;;;;;;;5.49;81.44;95785.34;1671168;84;21053;-62
2022/10/22 04:36:16;;;;;;;19.30;12.13;;;;;;;5.47;81.40;95784.48;1701808;83;21100;-62
2022/10/22 04:38:45;;;;;;;47.90;27.73;;;;;;;5.42;81.23;95788.39;1720386;83;21171;-62
2022/10/22 04:41:21;;;;;;;41.33;24.80;;;;;;;5.38;81.32;95790.98;1699612;84;21046;-62
2022/10/22 04:43:49;;;;;;;19.20;11.63;;;;;;;5.32;81.44;95783.11;1700640;84;21034;-62
2022/10/22 04:46:17;;;;;;;40.33;24.63;;;;;;;5.23;81.94;95783.92;1700977;83;21125;-62
2022/10/22 04:48:45;;;;;;;86.00;45.83;;;;;;;5.20;81.67;95787.40;1699056;83;21069;-62
2022/10/22 04:51:16;;;;;;;47.80;28.83;;;;;;;5.12;81.63;95779.95;1701033;82;21520;-62
2022/10/22 04:53:44;;;;;;;36.13;20.67;;;;;;;5.10;81.73;95784.73;1699137;82;21053;-62
2022/10/22 04:56:21;;;;;;;72.43;39.80;;;;;;;5.05;81.79;95776.86;1699482;83;21127;-62
2022/10/22 04:58:52;;;;;;;48.30;25.77;;;;;;;4.94;82.79;95774.62;1700046;83;21048;-62
2022/10/22 05:01:23;;;;;;;76.07;44.70;;;;;;;4.95;82.61;95781.59;1700189;83;21077;-62
2022/10/22 05:03:52;;;;;;;86.83;51.77;;;;;;;4.89;82.86;95788.97;1700272;82;21054;-62
2022/10/22 05:06:20;;;;;;;79.60;46.67;;;;;;;4.83;82.71;95783.69;1699580;82;21062;-62
2022/10/22 05:08:47;;;;;;;62.63;36.50;;;;;;;4.86;82.73;95789.37;1698102;82;21122;-62
2022/10/22 05:11:18;;;;;;;72.53;40.53;;;;;;;4.87;83.16;95793.31;1700712;83;21033;-62
2022/10/22 05:13:45;;;;;;;53.10;29.50;;;;;;;4.84;82.54;95798.53;1698781;84;21607;-62
2022/10/22 05:16:13;;;;;;;60.03;34.93;;;;;;;4.90;82.70;95798.99;1699719;84;21015;-62
2022/10/22 05:18:43;;;;;;;63.27;36.67;;;;;;;4.84;82.56;95802.45;1700545;84;21074;-62
2022/10/22 05:21:18;;;;;;;81.03;44.93;;;;;;;4.77;83.44;95813.72;1699393;82;21046;-62
2022/10/22 05:23:47;;;;;;;81.47;45.33;;;;;;;4.77;83.26;95817.20;1699420;84;21073;-62
2022/10/22 05:26:18;;;;;;;67.03;38.73;;;;;;;4.86;83.49;95814.20;1699117;84;21038;-62
2022/10/22 05:28:48;;;;;;;75.17;41.43;;;;;;;4.90;82.89;95813.38;1699784;84;21192;-62
2022/10/22 05:31:16;;;;;;;65.60;38.50;;;;;;;4.95;83.04;95819.51;1699262;84;21038;-62
2022/10/22 05:33:44;;;;;;;65.93;39.97;;;;;;;4.95;82.69;95812.97;1699485;83;21508;-62
2022/10/22 05:36:15;;;;;;;66.37;40.67;;;;;;;5.02;82.92;95827.84;1699810;84;21086;-62
2022/10/22 05:38:42;;;;;;;60.60;37.33;;;;;;;5.11;82.44;95830.94;1700028;83;21046;-62
2022/10/22 05:41:15;;;;;;;136.57;67.17;;;;;;;5.10;82.27;95831.37;1699132;84;21106;-62
2022/10/22 05:43:42;;;;;;;127.20;66.70;;;;;;;5.08;82.20;95824.38;1700850;83;21046;-62
2022/10/22 05:46:16;;;;;;;90.07;47.80;;;;;;;5.08;82.29;95823.08;1699432;83;21149;-62
2022/10/22 05:48:43;;;;;;;55.03;34.97;;;;;;;5.13;82.75;95805.67;1701639;84;21018;-62
2022/10/22 05:51:12;;;;;;;57.50;33.43;;;;;;;5.17;83.23;95804.83;1697717;83;21043;-62
2022/10/22 05:53:41;;;;;;;53.07;30.33;;;;;;;5.31;83.54;95807.06;1700334;83;21098;-62
2022/10/22 05:56:14;;;;;;;41.17;25.50;;;;;;;5.43;83.20;95818.04;1699459;83;21587;-62
2022/10/22 05:58:42;;;;;;;46.98;32.70;;;;;;;5.55;83.15;95822.47;1699060;84;21109;-62
2022/10/22 06:01:16;;;;;;;27.90;16.87;;;;;;;5.58;82.72;95814.63;1697164;84;21053;-62
2022/10/22 06:03:44;;;;;;;23.47;14.00;;;;;;;5.63;83.33;95820.75;1699271;83;21082;-62
2022/10/22 06:06:34;;;;;;;27.37;16.57;;;;;;;5.74;83.25;95812.48;1700162;83;21544;-62
2022/10/22 06:09:25;;;;;;;24.37;14.87;;;;;;;5.88;83.18;95814.30;1700365;83;21576;-62
2022/10/22 06:11:52;;;;;;;18.80;12.10;;;;;;;5.99;82.77;95800.38;1698269;84;21077;-62
2022/10/22 06:14:20;;;;;;;19.03;12.07;;;;;;;6.06;81.99;95805.20;1698640;83;21132;-62
2022/10/22 06:16:47;;;;;;;12.57;8.97;;;;;;;6.10;81.81;95807.38;1700897;84;21070;-62
2022/10/22 06:19:17;;;;;;;17.00;10.37;;;;;;;6.09;82.08;95804.34;1701918;84;21094;-62
2022/10/22 06:21:45;;;;;;;22.33;12.03;;;;;;;6.14;82.72;95798.23;1699337;82;21018;-62
2022/10/22 06:24:12;;;;;;;79.70;45.23;;;;;;;6.23;82.92;95796.95;1700746;83;21014;-62
2022/10/22 06:26:40;;;;;;;33.93;20.43;;;;;;;6.37;83.00;95800.87;1699942;83;21097;-62
2022/10/22 06:29:08;;;;;;;136.00;68.47;;;;;;;6.55;82.23;95800.45;1699539;84;21082;-62
2022/10/22 06:31:37;;;;;;;27.27;17.03;;;;;;;6.75;81.59;95800.02;1699537;84;21065;-62
2022/10/22 06:34:06;;;;;;;23.33;14.10;;;;;;;6.93;81.98;95800.02;1698901;83;21046;-62
2022/10/22 06:36:34;;;;;;;23.03;14.03;;;;;;;7.17;81.88;95803.47;1697077;84;21042;-62
2022/10/22 06:39:01;;;;;;;19.87;12.97;;;;;;;7.37;81.30;95808.23;1699459;83;21169;-62
2022/10/22 06:41:27;;;;;;;18.03;10.57;;;;;;;7.54;79.61;95813.44;1699816;84;20998;-62
2022/10/22 06:43:56;;;;;;;19.17;11.87;;;;;;;7.73;79.35;95809.42;1699596;84;21070;-62
2022/10/22 06:46:24;;;;;;;84.70;52.17;;;;;;;7.93;79.60;95804.08;1699635;84;21596;-62
2022/10/22 06:48:56;;;;;;;17.10;11.30;;;;;;;8.15;78.99;95810.09;1700265;83;21073;-62
2022/10/22 06:51:24;;;;;;;32.20;24.63;;;;;;;8.34;75.36;95802.55;1730597;83;21066;-62
2022/10/22 06:53:51;;;;;;;19.67;13.17;;;;;;;8.51;75.72;95819.53;1703038;84;21045;-62
2022/10/22 06:56:21;;;;;;;18.87;11.03;;;;;;;8.61;74.96;95799.30;1670638;84;21066;-62
2022/10/22 06:58:50;;;;;;;19.67;12.33;;;;;;;8.77;74.17;95818.45;1699738;83;21539;-62
2022/10/22 07:01:20;;;;;;;26.00;15.03;;;;;;;8.89;72.94;95806.52;1700978;84;21094;-62
2022/10/22 07:03:50;;;;;;;22.37;13.70;;;;;;;9.06;71.65;95793.22;1699990;83;21156;-62
2022/10/22 07:06:19;;;;;;;32.77;20.93;;;;;;;9.28;72.12;95801.78;1699742;82;21042;-62
2022/10/22 07:08:45;;;;;;;84.90;45.33;;;;;;;9.46;72.45;95808.16;1699263;82;21033;-62
2022/10/22 07:11:21;;;;;;;37.53;26.23;;;;;;;9.61;72.07;95792.64;1700371;83;21126;-62
2022/10/22 07:13:49;;;;;;;20.10;13.27;;;;;;;9.67;69.32;95800.91;1697954;83;21049;-62
2022/10/22 07:16:17;;;;;;;17.80;12.60;;;;;;;9.63;68.60;95803.17;1699134;82;21598;-62
2022/10/22 07:18:44;;;;;;;22.53;14.43;;;;;;;9.63;68.87;95790.86;1699646;84;21133;-62
2022/10/22 07:21:13;;;;;;;30.10;17.90;;;;;;;9.61;68.06;95787.37;1698854;82;21054;-63
2022/10/22 07:23:40;;;;;;;24.43;15.73;;;;;;;9.57;68.31;95789.59;1699708;83;21053;-62
2022/10/22 07:26:08;;;;;;;20.40;12.40;;;;;;;9.56;68.89;95790.95;1699416;83;21002;-63
2022/10/22 07:28:38;;;;;;;17.93;13.40;;;;;;;9.53;68.79;95784.83;1699648;84;21047;-62
2022/10/22 07:31:08;;;;;;;24.87;17.07;;;;;;;9.57;68.64;95788.28;1700630;82;21090;-62
2022/10/22 07:33:35;;;;;;;25.27;14.90;;;;;;;9.68;69.37;95786.41;1719395;83;21125;-62
2022/10/22 07:36:05;;;;;;;220.40;135.63;;;;;;;9.86;69.82;95787.94;1699197;84;21026;-62
2022/10/22 07:38:33;;;;;;;29.27;19.47;;;;;;;10.09;69.71;95789.41;1700176;84;21570;-62
2022/10/22 07:41:00;;;;;;;24.07;15.53;;;;;;;10.25;67.56;95792.69;1699831;83;21025;-62
2022/10/22 07:43:27;;;;;;;17.47;12.20;;;;;;;10.33;68.03;95783.83;1699284;84;21110;-62
2022/10/22 07:45:56;;;;;;;28.90;19.63;;;;;;;10.51;68.58;95789.27;1699693;84;21066;-62
2022/10/22 07:48:23;;;;;;;18.73;11.20;;;;;;;10.67;66.84;95791.67;1699611;83;21134;-62
2022/10/22 07:50:51;;;;;;;21.12;10.98;;;;;;;10.82;66.72;95787.46;1700945;84;21086;-62
2022/10/22 07:53:20;;;;;;;21.65;11.48;;;;;;;11.00;66.81;95775.72;1699431;84;21182;-62
2022/10/22 07:55:50;;;;;;;20.95;13.75;;;;;;;11.19;64.90;95780.23;1697330;83;21086;-62
2022/10/22 07:58:18;;;;;;;29.75;15.28;;;;;;;11.41;66.04;95785.98;1701144;84;21042;-62
2022/10/22 08:00:46;;;;;;;27.58;13.45;;;;;;;11.65;66.50;95774.94;1670168;84;21032;-62
2022/10/22 08:03:14;;;;;;;28.62;16.15;;;;;;;11.89;65.98;95775.36;1701142;83;21038;-62
2022/10/22 08:05:44;;;;;;;21.40;12.60;;;;;;;12.10;64.32;95785.97;1699978;82;21030;-62
2022/10/22 08:08:14;;;;;;;16.85;9.25;;;;;;;12.31;63.25;95789.45;1701564;84;21667;-62
2022/10/22 08:10:41;;;;;;;17.70;8.88;;;;;;;12.38;62.90;95783.58;1699715;83;21018;-62
2022/10/22 08:13:07;;;;;;;16.82;8.23;;;;;;;12.41;62.22;95793.22;1700450;84;21010;-62
2022/10/22 08:15:34;;;;;;;14.70;7.40;;;;;;;12.39;61.88;95790.59;1698947;82;21054;-62
2022/10/22 08:18:01;;;;;;;20.40;9.35;;;;;;;12.40;62.19;95795.00;1699732;84;21034;-62
2022/10/22 08:20:27;;;;;;;13.75;8.48;;;;;;;12.40;61.43;95803.37;1699434;84;21062;-62
2022/10/22 08:22:54;;;;;;;15.78;9.28;;;;;;;12.50;61.99;95800.50;1699478;83;21501;-62
2022/10/22 08:25:21;;;;;;;16.12;7.87;;;;;;;12.74;61.96;95811.42;1700456;84;21042;-62
2022/10/22 08:27:48;;;;;;;15.70;7.60;;;;;;;13.00;60.93;95789.59;1700740;84;21065;-62
2022/10/22 08:30:15;;;;;;;12.73;7.67;;;;;;;13.25;62.02;95812.36;1698142;83;21162;-62
2022/10/22 08:32:42;;;;;;;17.10;7.30;;;;;;;13.49;60.15;95811.36;1699543;84;21520;-62
2022/10/22 08:35:10;;;;;;;21.42;9.73;;;;;;;13.67;60.14;95803.37;1699045;84;21544;-62
2022/10/22 08:37:36;;;;;;;14.40;7.80;;;;;;;13.77;59.82;95811.02;1700687;84;21534;-62
2022/10/22 08:40:05;;;;;;;10.78;8.45;;;;;;;13.73;57.47;95806.70;1700232;84;21097;-62
2022/10/22 08:43:02;;;;;;;11.78;8.25;;;;;;;13.63;58.59;95807.44;1699032;84;21050;-62
2022/10/22 08:45:46;;;;;;;18.65;9.93;;;;;;;13.51;58.86;95817.50;1700796;83;21010;-62
2022/10/22 08:48:31;;;;;;;;;;;;;;;13.37;57.65;95812.08;1702434;84;21035;-62
2022/10/22 08:50:58;;;;;;;37.05;23.18;;;;;;;13.25;57.97;95813.69;1696888;82;20566;-62
2022/10/22 08:53:36;;;;;;;15.58;8.70;;;;;;;13.20;58.70;95812.50;1670023;84;21048;-62
2022/10/22 08:56:03;;;;;;;14.73;8.18;;;;;;;13.21;59.03;95808.94;1675864;84;21054;-60
2022/10/22 08:58:37;;;;;;;16.75;8.23;;;;;;;13.23;59.64;95808.01;1699673;83;21180;-60
2022/10/22 09:01:24;;;;;;;21.20;9.63;;;;;;;13.27;59.24;95812.37;1700260;84;21102;-60
2022/10/22 09:04:11;;;;;;;16.70;8.15;;;;;;;13.33;60.33;95806.47;1703219;83;21081;-60
2022/10/22 09:06:43;;;;;;;22.58;10.78;;;;;;;13.41;60.53;95812.43;1701788;84;21626;-62
2022/10/22 09:09:16;;;;;;;15.98;10.48;;;;;;;13.53;60.39;95811.67;1700306;83;21073;-62
2022/10/22 09:11:49;;;;;;;17.65;10.48;;;;;;;13.63;60.22;95807.86;1700537;83;21042;-62
2022/10/22 09:14:22;;;;;;;19.05;11.25;;;;;;;13.72;59.98;95813.39;1701196;83;21054;-62
2022/10/22 09:17:06;;;;;;;17.20;10.43;;;;;;;13.77;59.33;95812.34;1697775;83;21141;-63
2022/10/22 09:19:41;;;;;;;14.98;8.30;;;;;;;13.87;60.09;95812.10;1697324;84;21592;-62
2022/10/22 09:22:15;;;;;;;15.08;9.85;;;;;;;13.95;59.28;95818.05;1700660;84;21098;-61
2022/10/22 09:24:48;;;;;;;16.60;10.78;;;;;;;13.93;59.78;95810.59;1700396;83;21618;-61
2022/10/22 09:27:23;;;;;;;24.20;10.95;;;;;;;13.97;60.14;95817.56;1700469;84;21572;-62
2022/10/22 09:29:49;;;;;;;21.00;11.40;;;;;;;14.00;60.10;95826.28;1699409;84;21600;-61
2022/10/22 09:32:18;;;;;;;17.90;11.18;;;;;;;14.01;59.79;95823.17;1700416;84;21066;-61
2022/10/22 09:34:47;;;;;;;13.70;9.00;;;;;;;14.00;60.08;95826.75;1699577;83;21120;-62
2022/10/22 09:37:17;;;;;;;12.47;8.43;;;;;;;14.00;59.62;95832.05;1699854;82;21046;-62
2022/10/22 09:39:47;;;;;;;15.65;9.28;;;;;;;13.97;59.14;95833.47;1697969;84;21122;-61
2022/10/22 09:42:17;;;;;;;12.55;9.30;;;;;;;13.96;59.04;95825.08;1670102;84;21091;-61
2022/10/22 09:44:53;;;;;;;12.25;9.53;;;;;;;13.94;58.77;95833.11;1699329;84;21050;-61
2022/10/22 09:47:33;;;;;;;17.48;10.80;;;;;;;13.90;59.13;95820.83;1701246;84;21054;-61
2022/10/22 09:50:29;;;;;;;13.10;9.03;;;;;;;13.87;59.08;95824.90;1699286;84;21093;-61
2022/10/22 09:53:22;;;;;;;13.70;8.78;;;;;;;14.00;59.40;95822.30;1700773;84;21022;-61
2022/10/22 09:55:53;;;;;;;16.12;9.08;;;;;;;14.23;59.45;95818.98;1673151;84;21050;-61
2022/10/22 09:58:20;;;;;;;15.85;9.80;;;;;;;14.46;59.28;95809.47;1699507;84;21042;-62
2022/10/22 10:00:59;;;;;;;17.60;10.03;;;;;;;14.62;57.66;95803.29;1699285;84;21102;-62
2022/10/22 10:03:31;;;;;;;22.27;10.13;;;;;;;14.72;58.35;95807.39;1699981;83;21203;-61
2022/10/22 10:06:01;;;;;;;17.03;9.73;;;;;;;14.89;58.87;95807.73;1701293;84;21003;-61
2022/10/22 10:08:28;;;;;;;17.07;10.08;;;;;;;15.12;58.68;95812.30;1699333;84;21090;-61
2022/10/22 10:11:09;;;;;;;17.95;10.65;;;;;;;15.42;56.80;95804.22;1700153;83;21075;-61
2022/10/22 10:13:59;;;;;;;15.48;10.25;;;;;;;15.76;56.77;95805.25;1698732;83;21318;-62
2022/10/22 10:16:49;;;;;;;18.10;12.00;;;;;;;16.33;54.92;95803.63;1699229;83;21102;-61
2022/10/22 10:19:27;;;;;;;14.93;9.15;;;;;;;16.33;54.92;95803.63;1699450;83;21524;-62
2022/10/22 10:22:05;;;;;;;23.00;8.30;;;;;;;16.47;55.93;95805.30;1702117;84;21070;-61
2022/10/22 10:25:05;;;;;;;18.60;8.80;;;;;;;16.78;55.26;95805.47;1690865;84;21050;-61
2022/10/22 10:27:43;;;;;;;16.55;9.45;;;;;;;17.30;55.48;95790.03;1699171;82;21058;-62
2022/10/22 10:30:17;;;;;;;19.80;11.38;;;;;;;17.82;53.44;95795.84;1697668;84;21094;-61
2022/10/22 10:33:17;;;;;;;20.70;10.75;;;;;;;18.22;51.70;95786.49;1699343;84;21049;-62
2022/10/22 10:36:24;;;;;;;24.25;10.00;;;;;;;18.44;51.05;95785.91;1700337;84;21543;-62
2022/10/22 10:39:11;;;;;;;18.35;9.25;;;;;;;18.43;49.11;95789.53;1651564;84;21062;-61
2022/10/22 10:42:02;;;;;;;19.10;9.18;;;;;;;18.70;50.76;95786.52;1700051;84;21582;-62
2022/10/22 10:44:54;;;;;;;14.80;8.88;;;;;;;19.21;48.09;95776.92;1696586;84;21022;-61
2022/10/22 10:47:29;;;;;;;25.73;9.20;;;;;;;19.61;46.37;95778.93;1699546;84;21054;-62
2022/10/22 10:50:10;;;;;;;23.75;8.73;;;;;;;19.81;46.07;95777.94;1698824;84;21054;-62
2022/10/22 10:53:03;;;;;;;19.90;8.13;;;;;;;19.80;47.19;95775.70;1697071;83;21046;-62
2022/10/22 10:55:59;;;;;;;20.05;9.60;;;;;;;19.84;45.54;95771.08;1700081;84;21066;-62
2022/10/22 10:58:55;;;;;;;20.88;10.35;;;;;;;19.99;47.51;95774.77;1699110;82;21115;-62
2022/10/22 11:01:45;;;;;;;17.65;10.08;;;;;;;19.79;45.62;95779.34;1696988;84;21043;-62
2022/10/22 11:04:47;;;;;;;19.07;9.73;;;;;;;20.13;45.90;95760.62;1697245;84;21062;-62
2022/10/22 11:07:19;;;;;;;15.88;9.85;;;;;;;20.28;45.59;95772.70;1666247;84;21094;-61
2022/10/22 11:09:51;;;;;;;16.25;6.47;;;;;;;20.50;45.23;95760.83;1699865;83;21113;-61
2022/10/22 11:12:26;;;;;;;6.72;4.15;;;;;;;20.65;46.54;95750.63;1701040;84;21049;-61
2022/10/22 11:15:04;;;;;;;7.58;3.40;;;;;;;21.01;46.00;95748.63;1699425;84;21045;-62
2022/10/22 11:17:42;;;;;;;4.97;3.47;;;;;;;21.34;45.67;95731.03;1697289;84;21050;-62
2022/10/22 11:20:28;;;;;;;9.53;3.52;;;;;;;21.83;44.97;95734.86;1700171;83;21062;-63
2022/10/22 11:23:03;;;;;;;10.55;3.45;;;;;;;21.95;43.51;95738.14;1699845;84;21552;-62
2022/10/22 11:25:34;;;;;;;8.53;3.20;;;;;;;21.79;43.53;95721.22;1697389;84;21042;-62
2022/10/22 11:28:18;;;;;;;6.50;2.87;;;;;;;21.53;42.82;95746.48;1699481;82;21019;-62
2022/10/22 11:30:50;;;;;;;4.87;3.12;;;;;;;21.17;43.35;95738.76;1696901;84;21132;-62
2022/10/22 11:33:21;;;;;;;7.92;3.20;;;;;;;20.74;44.78;95730.49;1700676;84;21049;-62
2022/10/22 11:35:49;;;;;;;8.03;3.40;;;;;;;20.57;45.78;95746.66;1699022;84;21094;-62
2022/10/22 11:38:23;;;;;;;6.55;3.40;;;;;;;20.42;46.55;95733.59;1699262;84;21587;-62
2022/10/22 11:41:04;;;;;;;6.67;3.50;;;;;;;20.48;45.92;95740.80;1697809;84;21053;-62
2022/10/22 11:43:54;;;;;;;5.87;3.83;;;;;;;20.69;46.35;95738.79;1700469;84;21172;-61
2022/10/22 11:46:26;;;;;;;10.00;5.80;;;;;;;20.71;44.44;95745.39;1700693;84;21587;-61
2022/10/22 11:49:17;;;;;;;8.73;5.15;;;;;;;20.46;45.04;95743.17;1698492;84;21038;-61
2022/10/22 11:51:46;;;;;;;7.78;3.52;;;;;;;20.32;45.94;95751.98;1700833;84;21113;-62
2022/10/22 11:54:43;;;;;;;5.40;3.33;;;;;;;19.94;45.41;95738.84;1699603;84;21515;-62
2022/10/22 11:57:23;;;;;;;6.40;3.67;;;;;;;19.76;46.47;95736.67;1699403;83;21049;-61